createdAt,value
2019-05-23T00:00:33.051Z,95.20
2019-05-23T00:03:02.830Z,94.90
2019-05-23T00:05:35.253Z,95.30
2019-05-23T00:08:08.581Z,94.80
2019-05-23T00:10:39.824Z,95.00
2019-05-23T00:13:15.136Z,95.00
2019-05-23T00:15:47.327Z,94.90
2019-05-23T00:18:20.827Z,95.40
2019-05-23T00:20:47.879Z,95.10
2019-05-23T00:23:17.528Z,95.10
2019-05-23T00:25:46.772Z,95.10
2019-05-23T00:28:17.021Z,95.20
2019-05-23T00:31:01.846Z,95.10
2019-05-23T00:33:32.341Z,95.10
2019-05-23T00:36:02.210Z,95.00
2019-05-23T00:38:31.332Z,95.00
2019-05-23T00:41:00.261Z,94.90
2019-05-23T00:43:30.477Z,94.90
2019-05-23T00:45:59.931Z,94.90
2019-05-23T00:48:28.515Z,95.20
2019-05-23T00:50:57.352Z,94.90
2019-05-23T00:53:26.097Z,94.90
2019-05-23T00:55:54.716Z,94.80
2019-05-23T00:58:23.292Z,94.70
2019-05-23T01:00:51.924Z,94.80
2019-05-23T01:03:21.216Z,94.80
2019-05-23T01:05:49.793Z,94.80
2019-05-23T01:08:20.820Z,94.80
2019-05-23T01:10:49.767Z,95.10
2019-05-23T01:13:18.771Z,94.60
2019-05-23T01:15:47.526Z,94.70
2019-05-23T01:18:16.279Z,94.70
2019-05-23T01:21:29.603Z,94.60
2019-05-23T01:24:02.609Z,94.70
2019-05-23T01:26:31.858Z,94.80
2019-05-23T01:29:01.896Z,94.70
2019-05-23T01:31:35.033Z,94.80
2019-05-23T01:34:05.501Z,94.80
2019-05-23T01:36:35.760Z,94.80
2019-05-23T01:39:06.356Z,94.70
2019-05-23T01:41:35.065Z,94.80
2019-05-23T01:44:04.772Z,94.70
2019-05-23T01:46:33.616Z,94.80
2019-05-23T01:49:02.376Z,94.80
2019-05-23T01:51:32.468Z,94.90
2019-05-23T01:54:01.204Z,94.80
2019-05-23T01:56:30.405Z,94.90
2019-05-23T01:58:58.985Z,95.20
2019-05-23T02:01:28.158Z,95.30
2019-05-23T02:03:56.820Z,95.40
2019-05-23T02:06:25.572Z,95.40
2019-05-23T02:08:54.323Z,95.40
2019-05-23T02:11:24.002Z,95.40
2019-05-23T02:13:52.840Z,95.70
2019-05-23T02:16:21.413Z,95.50
2019-05-23T02:18:50.965Z,95.60
2019-05-23T02:21:20.449Z,95.80
2019-05-23T02:23:49.311Z,95.90
2019-05-23T02:26:19.220Z,95.90
2019-05-23T02:28:47.983Z,96.20
2019-05-23T02:31:16.587Z,96.20
2019-05-23T02:33:45.179Z,96.10
2019-05-23T02:36:14.735Z,96.10
2019-05-23T02:39:00.523Z,96.20
2019-05-23T02:41:33.538Z,95.90
2019-05-23T02:44:08.869Z,95.80
2019-05-23T02:46:51.636Z,95.50
2019-05-23T02:49:23.093Z,95.40
2019-05-23T02:52:20.348Z,95.30
2019-05-23T02:54:49.409Z,95.20
2019-05-23T02:57:19.162Z,94.90
2019-05-23T02:59:49.375Z,95.00
2019-05-23T03:02:51.328Z,95.10
2019-05-23T03:05:21.933Z,95.00
2019-05-23T03:07:50.585Z,95.00
2019-05-23T03:10:19.883Z,95.00
2019-05-23T03:12:49.444Z,95.00
2019-05-23T03:15:19.250Z,94.90
2019-05-23T03:17:51.516Z,94.80
2019-05-23T03:20:21.402Z,94.60
2019-05-23T03:23:12.081Z,94.20
2019-05-23T03:26:19.813Z,94.10
2019-05-23T03:28:48.444Z,93.90
2019-05-23T03:31:46.016Z,93.90
2019-05-23T03:34:16.347Z,93.70
2019-05-23T03:36:45.204Z,93.60
2019-05-23T03:39:13.849Z,93.50
2019-05-23T03:41:42.432Z,93.40
2019-05-23T03:44:11.672Z,93.40
2019-05-23T03:46:44.538Z,93.40
2019-05-23T03:49:14.783Z,93.60
2019-05-23T03:51:44.874Z,93.80
2019-05-23T03:54:15.276Z,94.00
2019-05-23T03:56:45.675Z,94.00
2019-05-23T03:59:15.583Z,94.10
2019-05-23T04:02:05.117Z,94.40
2019-05-23T04:04:34.671Z,94.70
2019-05-23T04:07:04.362Z,95.00
2019-05-23T04:09:33.000Z,95.10
2019-05-23T04:12:02.179Z,95.10
2019-05-23T04:14:31.105Z,95.20
2019-05-23T04:16:59.812Z,95.40
2019-05-23T04:19:28.475Z,95.30
2019-05-23T04:21:57.046Z,95.40
2019-05-23T04:24:25.985Z,95.40
2019-05-23T04:26:54.647Z,95.50
2019-05-23T04:29:24.188Z,95.30
2019-05-23T04:32:07.161Z,95.30
2019-05-23T04:34:23.373Z,95.60
2019-05-23T04:36:52.016Z,95.20
2019-05-23T04:39:23.326Z,95.20
2019-05-23T04:41:52.192Z,95.30
2019-05-23T04:44:20.843Z,95.30
2019-05-23T04:46:50.340Z,95.30
2019-05-23T04:49:20.289Z,95.30
2019-05-23T04:51:48.864Z,95.50
2019-05-23T04:54:17.804Z,95.30
2019-05-23T04:56:46.394Z,95.20
2019-05-23T04:59:15.247Z,95.00
2019-05-23T05:01:44.405Z,94.90
2019-05-23T05:04:12.986Z,95.10
2019-05-23T05:06:41.565Z,94.80
2019-05-23T05:09:13.022Z,94.60
2019-05-23T05:11:41.895Z,94.30
2019-05-23T05:14:10.500Z,94.20
2019-05-23T05:16:39.075Z,94.10
2019-05-23T05:19:07.928Z,93.90
2019-05-23T05:21:36.872Z,92.90
2019-05-23T05:24:05.464Z,92.60
2019-05-23T05:26:34.081Z,91.80
2019-05-23T05:29:03.239Z,90.80
2019-05-23T05:31:31.819Z,89.40
2019-05-23T05:34:00.406Z,89.60
2019-05-23T05:36:28.994Z,87.90
2019-05-23T05:38:57.858Z,87.70
2019-05-23T05:41:45.816Z,90.30
2019-05-23T05:44:14.405Z,88.90
2019-05-23T05:46:43.250Z,87.70
2019-05-23T05:49:12.796Z,85.70
2019-05-23T05:51:41.379Z,85.10
2019-05-23T05:54:10.126Z,82.90
2019-05-23T05:56:58.056Z,83.70
2019-05-23T05:59:26.664Z,80.40
2019-05-23T06:01:56.335Z,82.60
2019-05-23T06:04:25.479Z,81.20
2019-05-23T06:07:00.560Z,77.10
2019-05-23T06:09:31.129Z,73.50
2019-05-23T06:12:12.586Z,72.50
2019-05-23T06:14:41.239Z,74.80
2019-05-23T06:17:12.405Z,75.70
2019-05-23T06:19:41.306Z,77.50
2019-05-23T06:22:09.927Z,73.30
2019-05-23T06:24:46.631Z,72.70
2019-05-23T06:27:13.013Z,66.80
2019-05-23T06:30:01.575Z,61.90
2019-05-23T06:32:30.494Z,63.60
2019-05-23T06:37:47.093Z,60.50
2019-05-23T06:40:15.945Z,60.40
2019-05-23T06:42:44.542Z,59.00
2019-05-23T06:45:13.417Z,59.20
2019-05-23T06:47:42.174Z,59.30
2019-05-23T06:50:13.427Z,57.80
2019-05-23T06:52:42.240Z,60.30
2019-05-23T06:55:10.841Z,60.00
2019-05-23T06:57:39.418Z,59.60
2019-05-23T07:00:08.185Z,59.60
2019-05-23T07:02:37.031Z,62.10
2019-05-23T07:05:05.629Z,62.90
2019-05-23T07:07:35.929Z,61.70
2019-05-23T07:10:06.733Z,62.50
2019-05-23T07:12:35.925Z,59.20
2019-05-23T07:15:04.539Z,58.60
2019-05-23T07:17:33.161Z,61.40
2019-05-23T07:20:01.737Z,60.10
2019-05-23T07:22:30.701Z,57.70
2019-05-23T07:25:18.659Z,56.90
2019-05-23T07:27:47.437Z,57.60
2019-05-23T07:30:20.205Z,55.10
2019-05-23T07:32:48.790Z,53.70
2019-05-23T07:35:18.074Z,56.80
2019-05-23T07:37:46.649Z,53.90
2019-05-23T07:40:15.249Z,54.20
2019-05-23T07:42:43.872Z,53.60
2019-05-23T07:45:14.809Z,50.80
2019-05-23T07:47:43.405Z,50.50
2019-05-23T07:50:11.998Z,49.90
2019-05-23T07:52:40.564Z,50.80
2019-05-23T07:55:34.641Z,49.30
2019-05-23T07:58:04.295Z,49.70
2019-05-23T08:00:36.841Z,53.30
2019-05-23T08:03:05.775Z,52.60
2019-05-23T08:05:34.563Z,50.40
2019-05-23T08:08:04.110Z,46.50
2019-05-23T08:10:34.526Z,46.60
2019-05-23T08:13:03.494Z,45.30
2019-05-23T08:15:32.372Z,43.10
2019-05-23T08:18:01.031Z,42.30
2019-05-23T08:20:29.633Z,45.20
2019-05-23T08:22:58.385Z,44.80
2019-05-23T08:25:27.028Z,45.80
2019-05-23T08:27:55.906Z,45.60
2019-05-23T08:30:24.573Z,47.00
2019-05-23T08:32:53.377Z,45.40
2019-05-23T08:35:22.709Z,45.00
2019-05-23T08:37:51.386Z,46.50
2019-05-23T08:40:22.002Z,45.60
2019-05-23T08:42:51.536Z,46.50
2019-05-23T08:45:23.322Z,45.90
2019-05-23T08:47:52.230Z,48.40
2019-05-23T08:50:21.768Z,50.00
2019-05-23T08:52:50.506Z,47.30
2019-05-23T08:55:22.581Z,46.50
2019-05-23T08:57:51.915Z,47.90
2019-05-23T09:00:22.906Z,46.30
2019-05-23T09:02:53.165Z,46.80
2019-05-23T09:05:23.582Z,46.30
2019-05-23T09:08:16.165Z,46.80
2019-05-23T09:10:42.370Z,44.80
2019-05-23T09:13:11.341Z,47.60
2019-05-23T09:15:40.426Z,45.60
2019-05-23T09:18:09.314Z,42.70
2019-05-23T09:20:38.185Z,41.20
2019-05-23T09:23:07.248Z,42.10
2019-05-23T09:25:36.198Z,39.00
2019-05-23T09:28:04.973Z,42.30
2019-05-23T09:30:34.453Z,40.80
2019-05-23T09:33:03.921Z,40.00
2019-05-23T09:35:33.476Z,38.80
2019-05-23T09:38:02.228Z,38.20
2019-05-23T09:40:31.132Z,38.90
2019-05-23T09:42:59.725Z,37.10
2019-05-23T09:45:28.388Z,37.00
2019-05-23T09:47:57.034Z,36.60
2019-05-23T09:50:27.445Z,37.80
2019-05-23T09:52:56.517Z,37.40
2019-05-23T09:55:25.465Z,39.00
2019-05-23T09:57:54.123Z,38.90
2019-05-23T10:00:24.020Z,38.00
2019-05-23T10:02:52.600Z,36.80
2019-05-23T10:05:40.133Z,35.80
2019-05-23T10:07:51.549Z,38.20
2019-05-23T10:10:20.203Z,38.10
2019-05-23T10:12:49.092Z,36.40
2019-05-23T10:15:49.165Z,35.20
2019-05-23T10:18:37.254Z,34.50
2019-05-23T10:21:05.945Z,34.30
2019-05-23T10:23:34.701Z,36.00
2019-05-23T10:26:03.827Z,34.30
2019-05-23T10:28:32.410Z,34.80
2019-05-23T10:31:01.351Z,33.60
2019-05-23T10:33:29.936Z,34.90
2019-05-23T10:36:18.736Z,35.50
2019-05-23T10:38:47.630Z,36.40
2019-05-23T10:41:16.204Z,36.10
2019-05-23T10:43:44.928Z,35.90
2019-05-23T10:46:13.568Z,35.60
2019-05-23T10:48:42.139Z,36.90
2019-05-23T10:51:10.741Z,37.00
2019-05-23T10:53:39.318Z,35.10
2019-05-23T10:56:27.693Z,35.10
2019-05-23T10:58:56.328Z,35.00
2019-05-23T11:01:25.853Z,35.60
2019-05-23T11:03:55.121Z,35.40
2019-05-23T11:06:23.750Z,36.10
2019-05-23T11:08:54.146Z,36.20
2019-05-23T11:11:23.121Z,36.10
2019-05-23T11:13:52.339Z,36.80
2019-05-23T11:16:21.292Z,35.50
2019-05-23T11:18:49.878Z,35.80
2019-05-23T11:21:18.472Z,36.40
2019-05-23T11:23:51.110Z,35.00
2019-05-23T11:26:19.712Z,35.60
2019-05-23T11:28:48.310Z,35.10
2019-05-23T11:31:17.242Z,33.60
2019-05-23T11:33:45.817Z,35.00
2019-05-23T11:36:14.664Z,36.30
2019-05-23T11:38:43.303Z,36.50
2019-05-23T11:41:12.190Z,35.80
2019-05-23T11:43:42.001Z,35.10
2019-05-23T11:46:21.499Z,36.00
2019-05-23T11:48:50.349Z,35.50
2019-05-23T11:51:24.152Z,34.50
2019-05-23T11:54:10.209Z,35.60
2019-05-23T11:56:39.825Z,35.90
2019-05-23T11:59:08.853Z,36.30
2019-05-23T12:02:11.557Z,36.00
2019-05-23T12:04:41.681Z,35.00
2019-05-23T12:07:17.781Z,35.50
2019-05-23T12:09:46.356Z,35.10
2019-05-23T12:12:14.929Z,35.40
2019-05-23T12:14:44.342Z,35.50
2019-05-23T12:17:14.521Z,35.60
2019-05-23T12:19:43.148Z,36.00
2019-05-23T12:22:12.309Z,35.80
2019-05-23T12:24:40.883Z,37.00
2019-05-23T12:27:28.849Z,38.40
2019-05-23T12:29:57.742Z,37.50
2019-05-23T12:32:26.316Z,37.80
2019-05-23T12:35:09.641Z,38.00
2019-05-23T12:37:25.239Z,37.60
2019-05-23T12:39:54.105Z,38.70
2019-05-23T12:42:22.682Z,40.50
2019-05-23T12:44:51.276Z,39.30
2019-05-23T12:47:30.247Z,39.40
2019-05-23T12:50:04.058Z,41.50
2019-05-23T12:52:33.365Z,41.40
2019-05-23T12:55:01.972Z,41.10
2019-05-23T12:57:30.588Z,41.10
2019-05-23T12:59:59.618Z,43.50
2019-05-23T13:02:28.912Z,44.80
2019-05-23T13:04:57.751Z,44.70
2019-05-23T13:07:45.649Z,43.70
2019-05-23T13:10:14.520Z,42.00
2019-05-23T13:12:43.164Z,42.10
2019-05-23T13:15:32.669Z,42.30
2019-05-23T13:18:01.238Z,43.10
2019-05-23T13:20:30.195Z,41.90
2019-05-23T13:22:58.865Z,42.10
2019-05-23T13:25:28.677Z,42.50
2019-05-23T13:27:58.719Z,41.50
2019-05-23T13:30:47.268Z,43.30
2019-05-23T13:33:16.135Z,43.90
2019-05-23T13:35:44.885Z,44.20
2019-05-23T13:38:13.435Z,43.40
2019-05-23T13:40:42.012Z,42.80
2019-05-23T13:43:10.590Z,42.50
2019-05-23T13:45:39.653Z,43.30
2019-05-23T13:48:08.245Z,43.50
2019-05-23T13:50:36.821Z,43.00
2019-05-23T13:53:06.650Z,43.20
2019-05-23T13:55:35.337Z,43.80
2019-05-23T13:58:03.901Z,43.20
2019-05-23T14:00:34.062Z,42.30
2019-05-23T14:03:03.023Z,43.60
2019-05-23T14:05:31.966Z,43.70
2019-05-23T14:08:11.703Z,43.90
2019-05-23T14:10:31.032Z,44.90
2019-05-23T14:12:59.607Z,45.50
2019-05-23T14:15:33.564Z,45.90
2019-05-23T14:18:02.185Z,45.40
2019-05-23T14:20:30.761Z,44.70
2019-05-23T14:23:04.241Z,45.60
2019-05-23T14:25:32.838Z,45.40
2019-05-23T14:28:08.800Z,45.60
2019-05-23T14:31:15.889Z,45.60
2019-05-23T14:34:06.008Z,46.50
2019-05-23T14:36:52.593Z,46.30
2019-05-23T14:39:33.037Z,45.90
2019-05-23T14:42:10.717Z,46.30
2019-05-23T14:44:39.315Z,47.20
2019-05-23T14:47:42.438Z,45.40
2019-05-23T14:50:26.857Z,45.50
2019-05-23T14:52:56.792Z,45.60
2019-05-23T14:55:25.385Z,46.80
2019-05-23T14:57:53.981Z,45.50
2019-05-23T15:00:24.952Z,46.70
2019-05-23T15:02:53.584Z,46.20
2019-05-23T15:05:22.320Z,46.40
2019-05-23T15:07:50.974Z,45.70
2019-05-23T15:10:20.601Z,46.70
2019-05-23T15:12:49.160Z,45.70
2019-05-23T15:15:18.201Z,46.80
2019-05-23T15:17:46.792Z,45.70
2019-05-23T15:20:15.357Z,44.20
2019-05-23T15:22:43.974Z,45.80
2019-05-23T15:25:12.540Z,45.60
2019-05-23T15:27:41.237Z,44.70
2019-05-23T15:30:09.817Z,44.60
2019-05-23T15:32:38.396Z,44.90
2019-05-23T15:35:06.981Z,44.00
2019-05-23T15:37:35.937Z,43.90
2019-05-23T15:40:04.600Z,46.00
2019-05-23T15:42:33.169Z,45.00
2019-05-23T15:45:01.803Z,46.10
2019-05-23T15:47:33.260Z,46.10
2019-05-23T15:50:07.128Z,46.00
2019-05-23T15:52:49.279Z,44.80
2019-05-23T15:55:26.641Z,45.60
2019-05-23T15:58:01.225Z,45.20
2019-05-23T16:00:45.389Z,46.60
2019-05-23T16:03:31.567Z,45.30
2019-05-23T16:06:21.601Z,45.30
2019-05-23T16:08:50.490Z,45.30
2019-05-23T16:11:19.531Z,46.10
2019-05-23T16:13:48.111Z,46.40
2019-05-23T16:16:16.688Z,47.40
2019-05-23T16:18:45.648Z,47.30
2019-05-23T16:21:14.700Z,46.90
2019-05-23T16:23:43.294Z,47.00
2019-05-23T16:26:12.008Z,47.70
2019-05-23T16:28:40.712Z,47.60
2019-05-23T16:31:09.321Z,48.10
2019-05-23T16:33:38.260Z,48.10
2019-05-23T16:36:06.890Z,47.30
2019-05-23T16:38:35.474Z,47.50
2019-05-23T16:41:04.061Z,47.40
2019-05-23T16:43:33.077Z,47.40
2019-05-23T16:46:01.714Z,47.80
2019-05-23T16:48:31.131Z,46.80
2019-05-23T16:51:00.185Z,47.80
2019-05-23T16:53:48.358Z,48.40
2019-05-23T16:56:25.094Z,48.20
2019-05-23T16:59:03.409Z,48.60
2019-05-23T17:01:57.053Z,48.40
2019-05-23T17:04:35.685Z,48.90
2019-05-23T17:07:20.294Z,47.80
2019-05-23T17:10:08.659Z,48.30
2019-05-23T17:12:43.925Z,47.80
2019-05-23T17:15:26.540Z,50.60
2019-05-23T17:18:11.007Z,48.80
2019-05-23T17:21:04.988Z,49.00
2019-05-23T17:23:55.832Z,50.70
2019-05-23T17:26:35.428Z,50.10
2019-05-23T17:29:07.737Z,50.00
2019-05-23T17:31:38.722Z,50.50
2019-05-23T17:34:07.285Z,50.90
2019-05-23T17:36:36.003Z,49.90
2019-05-23T17:39:24.579Z,48.60
2019-05-23T17:41:53.337Z,50.40
2019-05-23T17:44:22.275Z,49.90
2019-05-23T17:46:50.873Z,50.80
2019-05-23T17:49:19.497Z,50.80
2019-05-23T17:51:48.079Z,50.70
2019-05-23T17:54:16.876Z,50.20
2019-05-23T17:56:45.571Z,49.50
2019-05-23T17:59:14.189Z,49.10
2019-05-23T18:01:43.562Z,49.40
2019-05-23T18:04:12.153Z,49.40
2019-05-23T18:06:40.788Z,48.20
2019-05-23T18:09:09.624Z,50.20
2019-05-23T18:11:38.278Z,48.70
2019-05-23T18:14:07.844Z,49.60
2019-05-23T18:16:36.930Z,49.50
2019-05-23T18:19:06.525Z,49.90
2019-05-23T18:21:35.225Z,50.70
2019-05-23T18:24:04.311Z,50.30
2019-05-23T18:26:33.086Z,51.00
2019-05-23T18:29:02.045Z,50.80
2019-05-23T18:31:32.704Z,50.50
2019-05-23T18:34:01.260Z,51.40
2019-05-23T18:36:31.113Z,51.00
2019-05-23T18:38:59.706Z,52.20
2019-05-23T18:41:28.651Z,52.80
2019-05-23T18:43:57.707Z,53.80
2019-05-23T18:46:31.606Z,53.50
2019-05-23T18:49:00.353Z,54.20
2019-05-23T18:51:28.922Z,55.80
2019-05-23T18:53:57.765Z,55.70
2019-05-23T18:56:26.409Z,55.90
2019-05-23T18:58:55.225Z,57.40
2019-05-23T19:01:25.771Z,58.40
2019-05-23T19:03:55.065Z,59.50
2019-05-23T19:06:24.516Z,60.30
2019-05-23T19:08:53.151Z,60.80
2019-05-23T19:11:22.408Z,60.60
2019-05-23T19:13:51.170Z,61.50
2019-05-23T19:16:20.013Z,61.90
2019-05-23T19:18:48.873Z,63.00
2019-05-23T19:21:17.826Z,63.00
2019-05-23T19:23:46.946Z,63.10
2019-05-23T19:26:16.333Z,63.00
2019-05-23T19:28:45.537Z,62.00
2019-05-23T19:31:15.870Z,62.30
2019-05-23T19:33:45.088Z,62.40
2019-05-23T19:36:14.638Z,61.90
2019-05-23T19:38:43.431Z,62.20
2019-05-23T19:41:12.453Z,62.50
2019-05-23T19:43:41.689Z,63.10
2019-05-23T19:46:10.543Z,63.30
2019-05-23T19:48:40.813Z,63.40
2019-05-23T19:51:10.573Z,63.90
2019-05-23T19:53:39.798Z,64.70
2019-05-23T19:56:09.095Z,64.80
2019-05-23T19:58:37.854Z,65.50
2019-05-23T20:01:07.308Z,65.50
2019-05-23T20:03:36.309Z,66.50
2019-05-23T20:06:05.248Z,66.70
2019-05-23T20:08:33.825Z,67.10
2019-05-23T20:11:02.408Z,66.40
2019-05-23T20:13:30.973Z,67.50
2019-05-23T20:15:59.546Z,67.70
2019-05-23T20:18:28.215Z,67.50
2019-05-23T20:20:57.080Z,68.10
2019-05-23T20:23:25.763Z,68.70
2019-05-23T20:25:54.332Z,68.10
2019-05-23T20:28:23.372Z,69.00
2019-05-23T20:30:56.133Z,69.10
2019-05-23T20:33:24.904Z,71.10
2019-05-23T20:35:53.479Z,71.00
2019-05-23T20:38:22.929Z,72.00
2019-05-23T20:40:51.543Z,72.30
2019-05-23T20:43:20.471Z,73.80
2019-05-23T20:45:49.051Z,73.30
2019-05-23T20:48:17.752Z,74.10
2019-05-23T20:50:46.383Z,74.50
2019-05-23T20:53:15.069Z,74.90
2019-05-23T20:55:43.783Z,75.50
2019-05-23T20:58:12.481Z,75.40
2019-05-23T21:00:59.306Z,75.80
2019-05-23T21:03:29.784Z,75.40
2019-05-23T21:05:58.369Z,76.10
2019-05-23T21:08:26.976Z,76.30
2019-05-23T21:10:55.568Z,76.60
2019-05-23T21:13:24.356Z,77.60
2019-05-23T21:15:53.081Z,77.60
2019-05-23T21:18:21.729Z,78.30
2019-05-23T21:20:50.317Z,78.70
2019-05-23T21:23:19.000Z,78.80
2019-05-23T21:26:06.821Z,79.60
2019-05-23T21:28:35.957Z,79.90
2019-05-23T21:31:07.863Z,79.80
2019-05-23T21:33:36.503Z,80.60
2019-05-23T21:36:05.409Z,81.10
2019-05-23T21:38:34.053Z,81.60
2019-05-23T21:41:03.676Z,82.40
2019-05-23T21:43:32.411Z,83.60
2019-05-23T21:46:01.002Z,82.10
2019-05-23T21:48:29.565Z,82.70
2019-05-23T21:50:58.144Z,83.30
2019-05-23T21:53:26.747Z,83.70
2019-05-23T21:55:55.413Z,84.00
2019-05-23T21:58:23.986Z,86.00
2019-05-23T22:01:23.029Z,85.70
2019-05-23T22:04:06.468Z,85.30
2019-05-23T22:06:36.773Z,86.10
2019-05-23T22:09:07.293Z,87.00
2019-05-23T22:11:35.973Z,87.10
2019-05-23T22:14:04.772Z,87.70
2019-05-23T22:16:33.545Z,89.00
2019-05-23T22:19:16.274Z,88.60
2019-05-23T22:21:45.164Z,89.90
2019-05-23T22:24:14.718Z,89.50
2019-05-23T22:26:43.328Z,89.90
2019-05-23T22:29:12.172Z,89.90
2019-05-23T22:31:40.751Z,90.00
2019-05-23T22:34:19.892Z,90.00
2019-05-23T22:36:48.485Z,90.20
2019-05-23T22:39:17.734Z,90.50
2019-05-23T22:41:46.569Z,90.90
2019-05-23T22:44:15.316Z,91.00
2019-05-23T22:46:44.048Z,90.70
2019-05-23T22:49:12.643Z,91.00
2019-05-23T22:51:41.244Z,90.60
2019-05-23T22:54:09.838Z,90.60
2019-05-23T22:56:38.447Z,90.90
2019-05-23T22:59:07.092Z,91.00
2019-05-23T23:01:36.035Z,90.90
2019-05-23T23:04:04.979Z,90.90
2019-05-23T23:06:33.646Z,90.90
2019-05-23T23:09:02.209Z,90.90
2019-05-23T23:11:30.806Z,91.00
2019-05-23T23:13:59.371Z,91.10
2019-05-23T23:16:28.028Z,91.00
2019-05-23T23:18:56.684Z,91.20
2019-05-23T23:21:25.320Z,91.00
2019-05-23T23:23:54.567Z,91.30
2019-05-23T23:26:23.145Z,91.40
2019-05-23T23:28:51.756Z,92.10
2019-05-23T23:31:20.329Z,92.30
2019-05-23T23:33:48.891Z,92.50
2019-05-23T23:36:17.443Z,92.40
2019-05-23T23:38:46.019Z,92.40
2019-05-23T23:41:14.692Z,92.50
2019-05-23T23:43:58.048Z,93.00
2019-05-23T23:46:31.348Z,93.20
2019-05-23T23:49:17.873Z,93.60
2019-05-23T23:52:04.433Z,94.20
2019-05-23T23:54:50.972Z,93.90
2019-05-23T23:57:37.577Z,94.10
